createdAt,value
2018-10-18T00:00:32.797Z,15.25
2018-10-18T00:03:01.120Z,14.75
2018-10-18T00:05:29.430Z,15.40
2018-10-18T00:07:57.760Z,16.15
2018-10-18T00:10:26.142Z,15.43
2018-10-18T00:12:54.431Z,15.35
2018-10-18T00:15:22.690Z,15.75
2018-10-18T00:17:50.982Z,14.25
2018-10-18T00:20:19.262Z,15.40
2018-10-18T00:22:47.590Z,15.58
2018-10-18T00:25:16.317Z,14.35
2018-10-18T00:27:44.618Z,15.35
2018-10-18T00:30:14.404Z,14.80
2018-10-18T00:32:43.398Z,15.32
2018-10-18T00:35:11.877Z,14.93
2018-10-18T00:37:40.386Z,15.23
2018-10-18T00:40:10.212Z,15.43
2018-10-18T00:42:38.578Z,16.05
2018-10-18T00:45:07.546Z,16.12
2018-10-18T00:47:35.890Z,17.10
2018-10-18T00:50:04.387Z,16.87
2018-10-18T00:52:32.650Z,17.45
2018-10-18T00:55:00.977Z,18.00
2018-10-18T00:57:29.333Z,17.27
2018-10-18T00:59:57.679Z,17.23
2018-10-18T01:02:25.995Z,18.17
2018-10-18T01:04:54.355Z,17.12
2018-10-18T01:07:22.668Z,17.80
2018-10-18T01:09:50.973Z,17.40
2018-10-18T01:12:19.331Z,15.63
2018-10-18T01:14:47.486Z,17.92
2018-10-18T01:17:15.754Z,16.50
2018-10-18T01:19:44.097Z,17.60
2018-10-18T01:22:12.456Z,16.90
2018-10-18T01:24:40.733Z,15.98
2018-10-18T01:27:09.059Z,16.10
2018-10-18T01:29:37.305Z,17.87
2018-10-18T01:32:06.299Z,15.32
2018-10-18T01:34:34.713Z,15.38
2018-10-18T01:37:03.010Z,15.35
2018-10-18T01:39:31.311Z,15.43
2018-10-18T01:41:59.600Z,14.60
2018-10-18T01:44:28.182Z,15.85
2018-10-18T01:46:56.535Z,15.98
2018-10-18T01:49:24.774Z,15.50
2018-10-18T01:51:53.024Z,15.38
2018-10-18T01:54:21.322Z,16.05
2018-10-18T01:56:49.659Z,16.00
2018-10-18T01:59:17.951Z,16.30
2018-10-18T02:01:46.206Z,16.02
2018-10-18T02:04:14.558Z,16.52
2018-10-18T02:06:42.813Z,16.27
2018-10-18T02:09:11.993Z,15.68
2018-10-18T02:11:40.742Z,16.90
2018-10-18T02:14:09.177Z,16.40
2018-10-18T02:16:37.474Z,17.05
2018-10-18T02:19:05.959Z,16.77
2018-10-18T02:21:34.193Z,15.68
2018-10-18T02:24:02.544Z,16.12
2018-10-18T02:26:30.800Z,16.57
2018-10-18T02:28:59.138Z,16.60
2018-10-18T02:31:27.399Z,18.30
2018-10-18T02:33:55.665Z,17.35
2018-10-18T02:36:23.976Z,17.95
2018-10-18T02:38:52.237Z,18.00
2018-10-18T02:41:20.530Z,16.93
2018-10-18T02:43:48.890Z,17.30
2018-10-18T02:46:17.153Z,16.97
2018-10-18T02:48:45.485Z,16.67
2018-10-18T02:51:13.814Z,15.88
2018-10-18T02:53:42.050Z,17.37
2018-10-18T02:56:10.291Z,16.67
2018-10-18T02:58:38.549Z,17.30
2018-10-18T03:01:06.811Z,17.75
2018-10-18T03:03:35.088Z,17.27
2018-10-18T03:06:03.407Z,17.30
2018-10-18T03:08:31.643Z,18.12
2018-10-18T03:11:00.087Z,17.87
2018-10-18T03:13:28.417Z,18.27
2018-10-18T03:15:56.740Z,17.48
2018-10-18T03:18:25.074Z,17.67
2018-10-18T03:20:53.335Z,17.80
2018-10-18T03:23:21.591Z,16.62
2018-10-18T03:25:49.926Z,16.48
2018-10-18T03:28:18.154Z,17.40
2018-10-18T03:30:46.439Z,18.35
2018-10-18T03:33:14.681Z,15.98
2018-10-18T03:35:42.958Z,15.43
2018-10-18T03:38:11.257Z,14.98
2018-10-18T03:40:39.556Z,13.70
2018-10-18T03:43:07.833Z,14.18
2018-10-18T03:45:36.113Z,13.03
2018-10-18T03:48:04.600Z,11.90
2018-10-18T03:50:33.110Z,11.38
2018-10-18T03:53:01.430Z,10.45
2018-10-18T03:55:29.760Z,10.08
2018-10-18T03:57:58.034Z,8.98
2018-10-18T04:00:26.278Z,8.80
2018-10-18T04:02:54.541Z,7.83
2018-10-18T04:05:22.873Z,7.65
2018-10-18T04:07:51.094Z,7.97
2018-10-18T04:10:19.335Z,8.30
2018-10-18T04:12:47.687Z,7.03
2018-10-18T04:15:15.967Z,6.33
2018-10-18T04:17:44.251Z,5.97
2018-10-18T04:20:12.458Z,5.25
2018-10-18T04:22:40.802Z,4.42
2018-10-18T04:25:09.118Z,3.25
2018-10-18T04:27:37.461Z,4.72
2018-10-18T04:30:06.361Z,3.40
2018-10-18T04:32:34.614Z,3.67
2018-10-18T04:35:02.897Z,3.55
2018-10-18T04:37:31.392Z,3.33
2018-10-18T04:39:59.774Z,3.62
2018-10-18T04:42:28.100Z,2.95
2018-10-18T04:44:56.348Z,3.60
2018-10-18T04:47:24.666Z,2.85
2018-10-18T04:49:52.835Z,4.37
2018-10-18T04:52:21.264Z,2.75
2018-10-18T04:54:49.487Z,3.33
2018-10-18T04:57:17.777Z,3.85
2018-10-18T04:59:46.049Z,3.35
2018-10-18T05:02:14.379Z,3.30
2018-10-18T05:04:52.986Z,3.17
2018-10-18T05:07:23.433Z,3.50
2018-10-18T05:09:51.786Z,3.22
2018-10-18T05:12:20.104Z,3.85
2018-10-18T05:14:48.392Z,3.40
2018-10-18T05:17:16.844Z,3.27
2018-10-18T05:19:45.133Z,3.52
2018-10-18T05:22:13.642Z,3.98
2018-10-18T05:24:41.886Z,2.95
2018-10-18T05:27:10.145Z,3.98
2018-10-18T05:29:38.428Z,3.30
2018-10-18T05:32:06.901Z,3.17
2018-10-18T05:34:35.347Z,4.12
2018-10-18T05:37:03.811Z,4.12
2018-10-18T05:39:32.097Z,3.72
2018-10-18T05:42:00.418Z,3.45
2018-10-18T05:44:28.686Z,3.55
2018-10-18T05:46:57.022Z,3.65
2018-10-18T05:49:26.213Z,5.00
2018-10-18T05:51:54.485Z,3.92
2018-10-18T05:54:23.107Z,4.10
2018-10-18T05:56:51.444Z,3.75
2018-10-18T05:59:19.726Z,4.17
2018-10-18T06:01:48.210Z,3.85
2018-10-18T06:04:16.517Z,4.50
2018-10-18T06:06:44.746Z,5.25
2018-10-18T06:09:17.043Z,4.97
2018-10-18T06:11:46.109Z,4.10
2018-10-18T06:14:14.414Z,4.05
2018-10-18T06:16:42.626Z,4.05
2018-10-18T06:19:11.250Z,3.52
2018-10-18T06:21:39.495Z,4.50
2018-10-18T06:24:07.735Z,4.90
2018-10-18T06:26:35.953Z,5.08
2018-10-18T06:29:04.334Z,4.80
2018-10-18T06:31:32.565Z,5.60
2018-10-18T06:34:00.821Z,4.90
2018-10-18T06:36:29.116Z,4.72
2018-10-18T06:38:57.434Z,5.00
2018-10-18T06:41:25.696Z,4.70
2018-10-18T06:43:53.948Z,5.22
2018-10-18T06:46:22.237Z,4.80
2018-10-18T06:48:50.547Z,4.45
2018-10-18T06:51:18.761Z,5.15
2018-10-18T06:53:47.093Z,4.80
2018-10-18T06:56:15.354Z,5.33
2018-10-18T06:58:43.662Z,5.40
2018-10-18T07:01:11.991Z,4.58
2018-10-18T07:03:40.262Z,5.10
2018-10-18T07:06:08.516Z,5.10
2018-10-18T07:08:36.795Z,5.22
2018-10-18T07:11:05.432Z,5.03
2018-10-18T07:13:33.675Z,5.47
2018-10-18T07:16:01.955Z,5.10
2018-10-18T07:18:30.172Z,5.33
2018-10-18T07:20:58.534Z,5.03
2018-10-18T07:23:26.799Z,5.42
2018-10-18T07:25:55.176Z,5.08
2018-10-18T07:28:23.502Z,5.40
2018-10-18T07:30:51.813Z,5.37
2018-10-18T07:33:20.109Z,4.60
2018-10-18T07:35:48.426Z,4.30
2018-10-18T07:38:16.718Z,4.83
2018-10-18T07:40:45.540Z,5.35
2018-10-18T07:43:14.663Z,5.40
2018-10-18T07:45:43.152Z,4.72
2018-10-18T07:48:11.447Z,5.05
2018-10-18T07:50:39.729Z,4.80
2018-10-18T07:53:08.033Z,5.62
2018-10-18T07:55:36.258Z,4.92
2018-10-18T07:58:04.754Z,5.17
2018-10-18T08:00:33.107Z,6.42
2018-10-18T08:03:01.387Z,5.35
2018-10-18T08:05:30.115Z,5.90
2018-10-18T08:07:58.530Z,4.90
2018-10-18T08:10:26.890Z,6.28
2018-10-18T08:12:55.282Z,5.37
2018-10-18T08:15:23.506Z,6.03
2018-10-18T08:17:51.802Z,4.72
2018-10-18T08:20:20.066Z,4.90
2018-10-18T08:22:48.318Z,4.80
2018-10-18T08:25:16.698Z,4.10
2018-10-18T08:27:44.891Z,4.00
2018-10-18T08:30:13.953Z,4.53
2018-10-18T08:32:42.272Z,3.37
2018-10-18T08:35:11.675Z,5.00
2018-10-18T08:37:40.015Z,3.30
2018-10-18T08:40:08.325Z,3.60
2018-10-18T08:42:36.657Z,3.50
2018-10-18T08:45:06.003Z,3.00
2018-10-18T08:47:34.301Z,3.03
2018-10-18T08:50:02.657Z,2.47
2018-10-18T08:52:30.937Z,2.80
2018-10-18T08:54:59.288Z,2.40
2018-10-18T08:57:27.530Z,2.70
2018-10-18T08:59:55.921Z,2.73
2018-10-18T09:02:24.320Z,2.63
2018-10-18T09:04:52.614Z,2.17
2018-10-18T09:07:20.927Z,2.90
2018-10-18T09:09:49.203Z,2.80
2018-10-18T09:12:18.417Z,2.73
2018-10-18T09:14:46.728Z,3.80
2018-10-18T09:17:14.986Z,2.70
2018-10-18T09:19:43.257Z,2.77
2018-10-18T09:22:11.518Z,2.20
2018-10-18T09:24:39.818Z,3.27
2018-10-18T09:27:08.057Z,2.40
2018-10-18T09:29:36.338Z,1.77
2018-10-18T09:32:04.926Z,2.07
2018-10-18T09:34:33.495Z,2.67
2018-10-18T09:37:01.768Z,1.90
2018-10-18T09:39:30.025Z,1.60
2018-10-18T09:41:58.341Z,1.77
2018-10-18T09:44:26.712Z,2.50
2018-10-18T09:46:55.047Z,1.53
2018-10-18T09:49:24.299Z,1.60
2018-10-18T09:51:52.623Z,1.37
2018-10-18T09:54:21.107Z,1.73
2018-10-18T09:56:49.379Z,1.43
2018-10-18T09:59:17.677Z,1.37
2018-10-18T10:02:50.750Z,1.40
2018-10-18T10:05:20.102Z,1.80
2018-10-18T10:07:48.331Z,1.80
2018-10-18T10:10:16.601Z,1.43
2018-10-18T10:12:44.860Z,1.60
2018-10-18T10:15:13.216Z,1.13
2018-10-18T10:17:41.671Z,1.50
2018-10-18T10:20:09.865Z,1.27
2018-10-18T10:22:38.101Z,2.73
2018-10-18T10:25:06.601Z,1.57
2018-10-18T10:27:34.850Z,1.50
2018-10-18T10:30:03.221Z,1.17
2018-10-18T10:32:31.494Z,1.40
2018-10-18T10:34:59.818Z,1.33
2018-10-18T10:37:28.068Z,1.40
2018-10-18T10:39:56.448Z,2.70
2018-10-18T10:42:24.625Z,1.40
2018-10-18T10:44:52.903Z,1.90
2018-10-18T10:47:21.185Z,2.00
2018-10-18T10:49:49.465Z,1.90
2018-10-18T10:52:17.826Z,2.00
2018-10-18T10:54:46.006Z,2.20
2018-10-18T10:57:14.370Z,1.40
2018-10-18T10:59:42.582Z,1.70
2018-10-18T11:02:10.980Z,2.00
2018-10-18T11:04:39.269Z,2.10
2018-10-18T11:07:07.498Z,1.80
2018-10-18T11:09:35.822Z,1.73
2018-10-18T11:12:04.315Z,1.30
2018-10-18T11:14:32.515Z,1.33
2018-10-18T11:17:00.868Z,1.90
2018-10-18T11:19:29.123Z,1.20
2018-10-18T11:21:57.361Z,1.53
2018-10-18T11:24:25.647Z,1.30
2018-10-18T11:26:54.026Z,1.43
2018-10-18T11:29:22.302Z,1.50
2018-10-18T11:31:50.550Z,1.50
2018-10-18T11:34:18.865Z,1.10
2018-10-18T11:36:47.271Z,1.23
2018-10-18T11:39:15.492Z,1.50
2018-10-18T11:41:43.815Z,1.73
2018-10-18T11:44:13.020Z,1.40
2018-10-18T11:46:41.338Z,1.00
2018-10-18T11:49:09.618Z,1.30
2018-10-18T11:51:38.009Z,1.03
2018-10-18T11:54:06.482Z,1.20
2018-10-18T11:56:34.653Z,1.10
2018-10-18T11:59:03.462Z,1.20
2018-10-18T12:01:31.799Z,1.30
2018-10-18T12:04:00.078Z,1.07
2018-10-18T12:06:28.448Z,1.00
2018-10-18T12:08:56.728Z,1.50
2018-10-18T12:11:24.977Z,1.03
2018-10-18T12:13:53.219Z,1.40
2018-10-18T12:16:21.540Z,1.20
2018-10-18T12:18:49.893Z,1.37
2018-10-18T12:21:18.224Z,1.53
2018-10-18T12:23:46.536Z,1.10
2018-10-18T12:26:14.848Z,1.60
2018-10-18T12:28:43.085Z,1.20
2018-10-18T12:31:12.114Z,1.40
2018-10-18T12:33:40.378Z,1.70
2018-10-18T12:36:08.693Z,1.93
2018-10-18T12:38:37.096Z,1.70
2018-10-18T12:41:05.647Z,1.67
2018-10-18T12:43:33.822Z,1.20
2018-10-18T12:46:02.132Z,1.50
2018-10-18T12:48:30.498Z,1.67
2018-10-18T12:53:40.770Z,1.33
2018-10-18T12:56:09.131Z,1.53
2018-10-18T12:58:37.966Z,0.97
2018-10-18T13:01:06.340Z,1.90
2018-10-18T13:03:34.773Z,1.30
2018-10-18T13:06:03.059Z,1.30
2018-10-18T13:08:31.276Z,1.60
2018-10-18T13:10:59.571Z,1.03
2018-10-18T13:13:27.826Z,1.37
2018-10-18T13:15:56.200Z,1.40
2018-10-18T13:18:24.551Z,1.27
2018-10-18T13:20:52.853Z,1.33
2018-10-18T13:23:21.249Z,0.90
2018-10-18T13:25:49.518Z,1.27
2018-10-18T13:28:17.826Z,1.60
2018-10-18T13:30:46.219Z,1.17
2018-10-18T13:33:14.494Z,1.30
2018-10-18T13:35:42.807Z,1.43
2018-10-18T13:38:11.182Z,1.30
2018-10-18T13:40:39.466Z,1.50
2018-10-18T13:43:11.089Z,1.77
2018-10-18T13:45:39.389Z,1.30
2018-10-18T13:48:07.710Z,1.20
2018-10-18T13:50:36.085Z,2.33
2018-10-18T13:53:04.401Z,1.37
2018-10-18T13:55:32.719Z,1.30
2018-10-18T13:58:01.366Z,1.30
2018-10-18T14:00:30.673Z,1.40
2018-10-18T14:02:58.956Z,1.40
2018-10-18T14:05:27.816Z,1.60
2018-10-18T14:07:56.517Z,1.13
2018-10-18T14:10:24.905Z,0.90
2018-10-18T14:12:53.692Z,1.17
2018-10-18T14:15:22.078Z,1.30
2018-10-18T14:17:50.458Z,2.10
2018-10-18T14:20:18.824Z,2.13
2018-10-18T14:22:47.012Z,1.80
2018-10-18T14:25:15.225Z,1.83
2018-10-18T14:27:43.607Z,3.20
2018-10-18T14:30:13.147Z,1.20
2018-10-18T14:32:41.325Z,1.55
2018-10-18T14:35:10.911Z,1.20
2018-10-18T14:37:39.186Z,1.00
2018-10-18T14:40:08.834Z,1.10
2018-10-18T14:42:37.120Z,1.57
2018-10-18T14:45:06.888Z,1.03
2018-10-18T14:47:35.128Z,1.30
2018-10-18T14:50:03.496Z,1.40
2018-10-18T14:52:31.865Z,1.50
2018-10-18T14:55:00.301Z,1.60
2018-10-18T14:57:28.592Z,1.30
2018-10-18T14:59:57.284Z,1.10
2018-10-18T15:02:25.569Z,1.30
2018-10-18T15:04:53.815Z,1.47
2018-10-18T15:07:22.170Z,1.10
2018-10-18T15:09:50.526Z,1.50
2018-10-18T15:12:19.231Z,1.80
2018-10-18T15:14:47.573Z,1.93
2018-10-18T15:17:16.003Z,2.20
2018-10-18T15:19:44.232Z,1.73
2018-10-18T15:22:12.457Z,1.50
2018-10-18T15:24:40.896Z,1.30
2018-10-18T15:27:09.290Z,1.40
2018-10-18T15:29:37.487Z,1.77
2018-10-18T15:32:05.890Z,2.00
2018-10-18T15:34:34.203Z,2.03
2018-10-18T15:37:02.530Z,1.83
2018-10-18T15:39:30.996Z,1.50
2018-10-18T15:41:59.194Z,2.07
2018-10-18T15:44:27.527Z,1.57
2018-10-18T15:46:56.238Z,2.47
2018-10-18T15:49:24.494Z,1.40
2018-10-18T15:51:52.807Z,2.05
2018-10-18T15:54:21.208Z,1.90
2018-10-18T15:56:49.530Z,2.22
2018-10-18T15:59:17.890Z,1.50
2018-10-18T16:01:46.546Z,2.10
2018-10-18T16:04:14.841Z,2.12
2018-10-18T16:06:43.103Z,1.87
2018-10-18T16:09:12.989Z,1.60
2018-10-18T16:11:41.472Z,2.05
2018-10-18T16:14:09.905Z,2.75
2018-10-18T16:16:38.271Z,2.05
2018-10-18T16:19:06.582Z,1.92
2018-10-18T16:21:34.974Z,2.67
2018-10-18T16:24:03.550Z,2.90
2018-10-18T16:26:31.908Z,2.00
2018-10-18T16:29:00.418Z,2.67
2018-10-18T16:31:28.928Z,2.20
2018-10-18T16:33:57.363Z,1.90
2018-10-18T16:36:25.601Z,2.30
2018-10-18T16:38:53.991Z,3.47
2018-10-18T16:41:22.678Z,2.80
2018-10-18T16:43:50.851Z,3.42
2018-10-18T16:46:19.228Z,2.20
2018-10-18T16:48:47.581Z,2.42
2018-10-18T16:51:15.890Z,2.52
2018-10-18T16:53:44.250Z,3.22
2018-10-18T16:56:12.628Z,3.30
2018-10-18T16:58:41.066Z,3.10
2018-10-18T17:01:09.714Z,2.15
2018-10-18T17:03:38.063Z,1.92
2018-10-18T17:06:06.368Z,2.83
2018-10-18T17:08:34.707Z,2.77
2018-10-18T17:11:03.253Z,3.05
2018-10-18T17:13:31.858Z,3.40
2018-10-18T17:16:00.165Z,3.65
2018-10-18T17:18:28.776Z,3.70
2018-10-18T17:20:57.176Z,4.17
2018-10-18T17:23:25.533Z,5.00
2018-10-18T17:25:53.700Z,4.30
2018-10-18T17:28:21.975Z,3.37
2018-10-18T17:30:50.536Z,3.70
2018-10-18T17:33:18.885Z,2.92
2018-10-18T17:35:47.134Z,3.05
2018-10-18T17:38:15.576Z,2.20
2018-10-18T17:40:43.902Z,2.95
2018-10-18T17:43:12.165Z,3.10
2018-10-18T17:45:40.410Z,2.87
2018-10-18T17:48:08.802Z,3.98
2018-10-18T17:50:37.040Z,3.55
2018-10-18T17:53:05.502Z,4.00
2018-10-18T17:55:33.752Z,3.15
2018-10-18T17:58:02.135Z,3.67
2018-10-18T18:00:30.586Z,3.87
2018-10-18T18:02:58.757Z,3.90
2018-10-18T18:05:27.048Z,4.67
2018-10-18T18:07:55.351Z,3.90
2018-10-18T18:10:23.576Z,4.30
2018-10-18T18:12:51.842Z,5.20
2018-10-18T18:15:20.107Z,4.45
2018-10-18T18:17:48.384Z,3.60
2018-10-18T18:20:16.688Z,4.12
2018-10-18T18:22:45.152Z,3.10
2018-10-18T18:25:14.092Z,3.52
2018-10-18T18:27:42.514Z,3.30
2018-10-18T18:30:14.301Z,3.58
2018-10-18T18:32:42.907Z,3.65
2018-10-18T18:35:11.215Z,3.80
2018-10-18T18:37:39.534Z,3.90
2018-10-18T18:40:08.999Z,4.12
2018-10-18T18:42:37.549Z,4.80
2018-10-18T18:45:11.250Z,4.75
2018-10-18T18:47:39.479Z,4.85
2018-10-18T18:50:08.954Z,4.58
2018-10-18T18:52:37.378Z,3.83
2018-10-18T18:55:06.666Z,4.03
2018-10-18T18:57:35.046Z,4.00
2018-10-18T19:00:03.380Z,4.78
2018-10-18T19:02:31.600Z,4.50
2018-10-18T19:04:59.971Z,5.05
2018-10-18T19:07:28.367Z,4.00
2018-10-18T19:09:56.734Z,3.47
2018-10-18T19:12:25.209Z,3.90
2018-10-18T19:14:53.510Z,3.83
2018-10-18T19:17:21.870Z,3.45
2018-10-18T19:19:50.138Z,3.30
2018-10-18T19:22:18.405Z,3.30
2018-10-18T19:24:46.709Z,3.47
2018-10-18T19:27:14.990Z,4.00
2018-10-18T19:29:43.342Z,3.25
2018-10-18T19:32:11.799Z,3.55
2018-10-18T19:34:40.017Z,3.35
2018-10-18T19:37:08.420Z,3.45
2018-10-18T19:39:36.746Z,4.15
2018-10-18T19:42:05.270Z,4.20
2018-10-18T19:44:33.506Z,4.80
2018-10-18T19:47:01.786Z,4.17
2018-10-18T19:49:30.046Z,4.72
2018-10-18T19:51:58.405Z,4.17
2018-10-18T19:54:26.645Z,3.80
2018-10-18T19:56:54.966Z,4.72
2018-10-18T19:59:23.246Z,5.65
2018-10-18T20:01:51.646Z,4.17
2018-10-18T20:04:19.986Z,4.58
2018-10-18T20:06:48.322Z,4.30
2018-10-18T20:09:16.606Z,5.17
2018-10-18T20:11:46.357Z,4.42
2018-10-18T20:14:14.802Z,4.60
2018-10-18T20:16:43.203Z,6.05
2018-10-18T20:19:11.566Z,5.00
2018-10-18T20:21:39.813Z,5.03
2018-10-18T20:24:08.923Z,5.22
2018-10-18T20:26:37.253Z,4.75
2018-10-18T20:29:05.801Z,4.67
2018-10-18T20:31:34.687Z,5.35
2018-10-18T20:34:02.948Z,5.10
2018-10-18T20:36:31.374Z,4.37
2018-10-18T20:38:59.800Z,4.45
2018-10-18T20:41:28.611Z,4.00
2018-10-18T20:43:57.274Z,3.98
2018-10-18T20:46:25.587Z,4.53
2018-10-18T20:48:54.020Z,4.90
2018-10-18T20:51:22.292Z,4.58
2018-10-18T20:53:50.571Z,4.20
2018-10-18T20:56:18.900Z,4.20
2018-10-18T20:58:47.310Z,4.90
2018-10-18T21:01:15.515Z,4.70
2018-10-18T21:03:43.827Z,4.60
2018-10-18T21:06:12.141Z,4.67
2018-10-18T21:08:40.382Z,5.50
2018-10-18T21:11:08.664Z,4.85
2018-10-18T21:13:36.877Z,4.60
2018-10-18T21:16:05.827Z,5.10
2018-10-18T21:18:34.055Z,5.10
2018-10-18T21:21:02.526Z,5.45
2018-10-18T21:23:30.769Z,5.40
2018-10-18T21:25:59.294Z,7.30
2018-10-18T21:28:27.574Z,7.70
2018-10-18T21:30:55.833Z,6.58
2018-10-18T21:33:24.163Z,6.92
2018-10-18T21:35:52.426Z,6.05
2018-10-18T21:38:20.750Z,6.17
2018-10-18T21:40:49.033Z,4.55
2018-10-18T21:43:17.325Z,4.50
2018-10-18T21:45:45.579Z,4.55
2018-10-18T21:48:13.864Z,5.12
2018-10-18T21:50:42.412Z,4.90
2018-10-18T21:53:10.624Z,4.70
2018-10-18T21:55:38.832Z,4.80
2018-10-18T21:58:07.131Z,4.55
2018-10-18T22:00:45.802Z,4.80
2018-10-18T22:03:15.322Z,4.65
2018-10-18T22:05:44.534Z,5.67
2018-10-18T22:08:13.024Z,4.75
2018-10-18T22:10:41.616Z,4.60
2018-10-18T22:13:09.902Z,4.60
2018-10-18T22:15:38.413Z,4.65
2018-10-18T22:18:06.728Z,4.62
2018-10-18T22:20:34.965Z,4.35
2018-10-18T22:23:03.403Z,4.40
2018-10-18T22:25:31.723Z,3.52
2018-10-18T22:27:59.806Z,4.05
2018-10-18T22:30:28.068Z,4.42
2018-10-18T22:32:56.065Z,3.62
2018-10-18T22:35:24.282Z,4.20
2018-10-18T22:37:52.528Z,3.80
2018-10-18T22:40:20.750Z,4.10
2018-10-18T22:42:49.055Z,4.25
2018-10-18T22:45:17.039Z,4.08
2018-10-18T22:47:45.338Z,4.05
2018-10-18T22:50:13.566Z,4.03
2018-10-18T22:52:41.829Z,4.87
2018-10-18T22:55:10.055Z,4.50
2018-10-18T22:57:38.349Z,4.60
2018-10-18T23:00:07.354Z,4.80
2018-10-18T23:02:35.702Z,4.65
2018-10-18T23:05:04.052Z,4.40
2018-10-18T23:07:32.283Z,4.60
2018-10-18T23:10:00.575Z,4.70
2018-10-18T23:12:28.910Z,4.50
2018-10-18T23:14:57.312Z,4.10
2018-10-18T23:17:25.562Z,4.83
2018-10-18T23:19:53.937Z,4.70
2018-10-18T23:22:22.171Z,5.15
2018-10-18T23:24:51.135Z,3.90
2018-10-18T23:27:18.651Z,4.10
2018-10-18T23:29:46.946Z,4.70
2018-10-18T23:32:15.325Z,5.20
2018-10-18T23:34:43.615Z,4.95
2018-10-18T23:37:11.956Z,5.20
2018-10-18T23:39:40.262Z,4.65
2018-10-18T23:42:08.638Z,4.20
2018-10-18T23:44:36.904Z,4.67
2018-10-18T23:47:06.301Z,4.37
2018-10-18T23:49:34.637Z,4.75
2018-10-18T23:52:02.910Z,4.08
2018-10-18T23:54:31.244Z,3.98
2018-10-18T23:56:59.554Z,4.50
2018-10-18T23:59:27.858Z,4.20
